Observations for LIVERPOOL AIRPORT, United Kingdom (EGGP)

EGGP 130850Z 13013KT 9999 FEW035 03/M01 Q1016   
EGGP 130820Z 12013KT 9999 FEW035 03/M01 Q1016   
EGGP 130750Z 12016KT 9999 FEW035 03/M01 Q1015   
EGGP 130720Z 12017KT 9999 FEW040 03/M00 Q1015   
EGGP 130650Z 12016KT 9999 FEW034 03/M01 Q1015   
EGGP 130620Z 13015KT 100V160 9999 FEW034 03/M01 Q1015   
EGGP 130550Z 13015KT 9999 FEW034 03/M01 Q1015   
EGGP 130520Z 12015KT 9999 FEW034 04/M01 Q1014   
EGGP 130450Z 12019KT 9999 FEW034 04/M00 Q1014   
EGGP 130420Z 12017KT 9999 FEW034 03/M01 Q1014   
EGGP 130350Z 12016G27KT 9999 FEW034 04/M01 Q1015
EGGP 130320Z 13016G27KT 9999 FEW034 04/M00 Q1015
EGGP 130250Z 13014G26KT 9999 FEW034 03/M02 Q1015
EGGP 130220Z 13014KT 100V170 9999 FEW034 04/M01 Q1015   
EGGP 130150Z 13018KT 9999 FEW034 04/M01 Q1015   
EGGP 130120Z 12018G31KT 9999 FEW034 03/M01 Q1015
EGGP 130050Z 12017KT 9999 FEW034 04/M01 Q1015   
EGGP 130020Z 12017KT 9999 FEW035 SCT040 04/M01 Q1016
EGGP 122350Z 12016KT 9999 FEW033 SCT039 04/M01 Q1016
EGGP 122320Z 13016G28KT 9999 FEW033 SCT038 04/M01 Q1016 
EGGP 122250Z 13016G26KT 9999 FEW032 SCT038 04/M02 Q1016 
EGGP 122220Z 13016G29KT 9999 FEW033 04/M01 Q1016
EGGP 122150Z 13015KT 9999 FEW034 04/M01 Q1016   
EGGP 122120Z 13014KT 9999 FEW034 03/M01 Q1016   
EGGP 122050Z 13014KT 9999 FEW034 05/00 Q1016
EGGP 122020Z 12014KT 9999 FEW034 05/01 Q1016
EGGP 121950Z 13013KT 9999 FEW034 05/01 Q1017
EGGP 121920Z 13013KT 9999 FEW020 OVC036 05/02 Q1017 
EGGP 121850Z 12012KT 9999 FEW018 OVC034 06/03 Q1017 
EGGP 121820Z 13012KT 9999 OVC030 06/02 Q1017
EGGP 121750Z 12014KT 9999 BKN032 BKN036 07/03 Q1017 
EGGP 121720Z 12012KT 9999 SCT015 BKN020 BKN036 07/04 Q1017  
EGGP 121650Z 12013KT 9999 SCT025 BKN031 07/04 Q1017 
EGGP 121620Z 13010KT 100V170 9999 SCT025 BKN031 07/05 Q1018 
EGGP 121550Z 13010KT CAVOK 07/04 Q1018  
EGGP 121520Z 14011KT 110V180 9999 SCT020 SCT026 07/03 Q1018 
EGGP 121450Z 14011KT 9999 BKN018 BKN024 08/05 Q1018 
EGGP 121420Z 14012KT 9999 SCT020 BKN026 08/04 Q1018 
EGGP 121350Z 13011KT 9999 SCT016 BKN021 08/04 Q1018 
EGGP 121320Z 13011KT 9999 SCT015 BKN017 07/04 Q1019 
EGGP 121250Z 13012KT 100V160 9000 SCT012 BKN016 07/05 Q1019 
EGGP 121220Z 13011KT 100V170 8000 BKN014 07/05 Q1019
EGGP 121150Z 14012KT 8000 BKN013 08/05 Q1019
EGGP 121120Z 14012KT 8000 BKN011 07/04 Q1020
EGGP 121050Z 13011KT 110V170 8000 BKN012 07/05 Q1020
EGGP 121020Z 13009KT 8000 BKN010 07/05 Q1020
EGGP 120950Z 12011KT 8000 BKN010 06/04 Q1020
EGGP 120920Z 12010KT 7000 SCT010 06/04 Q1020
EGGP 120850Z 13010KT 100V170 6000 SCT006 BKN010 BKN021 06/04 Q1020  
EGGP 120820Z 13010KT 6000 FEW007 SCT021 06/04 Q1020